createdAt,value
2018-04-15T00:00:38.516Z,0
2018-04-15T00:01:48.520Z,0
2018-04-15T00:02:58.247Z,0
2018-04-15T00:04:07.715Z,0
2018-04-15T00:05:17.728Z,0
2018-04-15T00:06:27.875Z,0
2018-04-15T00:07:37.937Z,0
2018-04-15T00:08:47.674Z,0
2018-04-15T00:09:57.676Z,0
2018-04-15T00:11:06.888Z,0
2018-04-15T00:12:16.891Z,0
2018-04-15T00:13:26.355Z,0
2018-04-15T00:14:36.362Z,0
2018-04-15T00:15:46.364Z,0
2018-04-15T00:16:56.105Z,0
2018-04-15T00:18:06.120Z,0
2018-04-15T00:19:15.853Z,0
2018-04-15T00:20:25.856Z,0
2018-04-15T00:21:35.320Z,0
2018-04-15T00:22:45.069Z,0
2018-04-15T00:23:54.540Z,0
2018-04-15T00:25:04.547Z,0
2018-04-15T00:26:14.555Z,0
2018-04-15T00:27:24.023Z,0
2018-04-15T00:28:33.765Z,0
2018-04-15T00:29:43.492Z,0
2018-04-15T00:30:53.507Z,0
2018-04-15T00:32:02.980Z,0
2018-04-15T00:33:12.713Z,0
2018-04-15T00:34:22.452Z,0
2018-04-15T00:35:32.193Z,0
2018-04-15T00:36:42.193Z,0
2018-04-15T00:37:51.676Z,0
2018-04-15T00:39:01.669Z,0
2018-04-15T00:40:11.134Z,0
2018-04-15T00:41:20.867Z,0
2018-04-15T00:42:30.875Z,0
2018-04-15T00:43:40.610Z,0
2018-04-15T00:44:50.341Z,0
2018-04-15T00:46:00.081Z,0
2018-04-15T00:47:10.086Z,0
2018-04-15T00:48:20.087Z,0
2018-04-15T00:49:30.117Z,0
2018-04-15T00:50:40.113Z,0
2018-04-15T00:51:49.846Z,0
2018-04-15T00:52:59.843Z,0
2018-04-15T00:54:09.839Z,0
2018-04-15T00:55:19.326Z,0
2018-04-15T00:56:29.329Z,0
2018-04-15T00:57:38.798Z,0
2018-04-15T00:58:48.531Z,0
2018-04-15T00:59:58.533Z,0
2018-04-15T01:01:08.305Z,0
2018-04-15T01:02:18.306Z,0
2018-04-15T01:03:28.042Z,0
2018-04-15T01:04:38.049Z,0
2018-04-15T01:05:47.791Z,0
2018-04-15T01:06:57.283Z,0
2018-04-15T01:08:07.020Z,0
2018-04-15T01:09:16.760Z,0
2018-04-15T01:10:26.756Z,0
2018-04-15T01:11:36.498Z,0
2018-04-15T01:12:46.244Z,0
2018-04-15T01:13:55.717Z,0
2018-04-15T01:15:05.458Z,0
2018-04-15T01:16:14.931Z,0
2018-04-15T01:17:24.669Z,0
2018-04-15T01:18:34.137Z,0
2018-04-15T01:19:44.151Z,0
2018-04-15T01:20:54.155Z,0
2018-04-15T01:22:04.163Z,0
2018-04-15T01:23:13.620Z,0
2018-04-15T01:24:23.620Z,0
2018-04-15T01:25:33.630Z,0
2018-04-15T01:26:43.363Z,0
2018-04-15T01:27:52.841Z,0
2018-04-15T01:29:02.843Z,0
2018-04-15T01:30:12.580Z,0
2018-04-15T01:31:22.313Z,0
2018-04-15T01:32:32.052Z,0
2018-04-15T01:33:41.786Z,0
2018-04-15T01:34:51.521Z,0
2018-04-15T01:36:01.518Z,0
2018-04-15T01:37:10.450Z,0
2018-04-15T01:38:20.459Z,0
2018-04-15T01:39:30.190Z,0
2018-04-15T01:40:40.185Z,0
2018-04-15T01:41:50.184Z,0
2018-04-15T01:43:00.185Z,0
2018-04-15T01:44:10.199Z,0
2018-04-15T01:45:20.223Z,0
2018-04-15T01:46:30.233Z,0
2018-04-15T01:47:39.702Z,0
2018-04-15T01:48:49.431Z,0
2018-04-15T01:49:59.438Z,0
2018-04-15T01:51:08.904Z,0
2018-04-15T01:52:18.910Z,0
2018-04-15T01:53:28.907Z,0
2018-04-15T01:54:38.373Z,0
2018-04-15T01:55:47.841Z,0
2018-04-15T01:56:57.849Z,0
2018-04-15T01:58:07.584Z,0
2018-04-15T01:59:17.587Z,0
2018-04-15T02:00:27.598Z,0
2018-04-15T02:01:37.604Z,0
2018-04-15T02:02:47.354Z,0
2018-04-15T02:03:57.399Z,0
2018-04-15T02:05:07.130Z,0
2018-04-15T02:06:16.871Z,0
2018-04-15T02:07:26.874Z,0
2018-04-15T02:08:36.612Z,0
2018-04-15T02:09:46.445Z,0
2018-04-15T02:10:56.183Z,0
2018-04-15T02:12:05.916Z,0
2018-04-15T02:13:15.915Z,0
2018-04-15T02:14:25.655Z,0
2018-04-15T02:15:34.853Z,0
2018-04-15T02:16:44.868Z,0
2018-04-15T02:17:54.885Z,0
2018-04-15T02:19:04.349Z,0
2018-04-15T02:20:13.815Z,0
2018-04-15T02:21:23.820Z,0
2018-04-15T02:22:33.826Z,0
2018-04-15T02:23:43.824Z,0
2018-04-15T02:24:53.288Z,0
2018-04-15T02:26:02.762Z,0
2018-04-15T02:27:12.546Z,0
2018-04-15T02:28:22.285Z,0
2018-04-15T02:29:32.024Z,0
2018-04-15T02:30:41.764Z,0
2018-04-15T02:31:51.499Z,0
2018-04-15T02:33:01.341Z,0
2018-04-15T02:34:11.080Z,0
2018-04-15T02:35:21.088Z,0
2018-04-15T02:36:30.554Z,0
2018-04-15T02:37:40.560Z,0
2018-04-15T02:38:50.311Z,0
2018-04-15T02:40:00.050Z,0
2018-04-15T02:41:09.795Z,0
2018-04-15T02:42:19.532Z,0
2018-04-15T02:43:29.269Z,0
2018-04-15T02:44:39.020Z,0
2018-04-15T02:45:49.035Z,0
2018-04-15T02:46:58.552Z,0
2018-04-15T02:48:08.049Z,0
2018-04-15T02:49:17.783Z,0
2018-04-15T02:50:27.803Z,0
2018-04-15T02:51:37.813Z,0
2018-04-15T02:52:47.818Z,0
2018-04-15T02:53:57.821Z,0
2018-04-15T02:55:07.831Z,0
2018-04-15T02:56:17.566Z,0
2018-04-15T02:57:27.570Z,0
2018-04-15T02:58:37.316Z,0
2018-04-15T02:59:47.328Z,0
2018-04-15T03:03:30.249Z,0
2018-04-15T03:04:40.280Z,0
2018-04-15T03:05:50.020Z,0
2018-04-15T03:07:00.034Z,0
2018-04-15T03:08:09.768Z,0
2018-04-15T03:09:19.775Z,0
2018-04-15T03:10:29.525Z,0
2018-04-15T03:11:39.253Z,0
2018-04-15T03:12:49.262Z,0
2018-04-15T03:13:58.995Z,0
2018-04-15T03:15:08.856Z,4
2018-04-15T03:16:18.594Z,4
2018-04-15T03:17:28.327Z,0
2018-04-15T03:18:38.056Z,0
2018-04-15T03:19:48.063Z,4
2018-04-15T03:20:58.054Z,4
2018-04-15T03:22:07.835Z,4
2018-04-15T03:23:17.836Z,4
2018-04-15T03:24:27.834Z,4
2018-04-15T03:25:37.830Z,8
2018-04-15T03:26:47.829Z,8
2018-04-15T03:27:57.295Z,8
2018-04-15T03:29:07.291Z,8
2018-04-15T03:30:17.037Z,12
2018-04-15T03:31:27.044Z,12
2018-04-15T03:32:36.782Z,16
2018-04-15T03:33:46.519Z,16
2018-04-15T03:34:56.523Z,24
2018-04-15T03:36:06.523Z,28
2018-04-15T03:37:15.995Z,32
2018-04-15T03:38:25.997Z,32
2018-04-15T03:39:35.737Z,40
2018-04-15T03:40:45.741Z,44
2018-04-15T03:41:55.745Z,52
2018-04-15T03:43:05.479Z,56
2018-04-15T03:44:14.683Z,64
2018-04-15T03:45:24.414Z,72
2018-04-15T03:46:34.150Z,80
2018-04-15T03:47:44.148Z,88
2018-04-15T03:48:54.223Z,100
2018-04-15T03:50:04.049Z,112
2018-04-15T03:51:13.782Z,124
2018-04-15T03:52:23.515Z,140
2018-04-15T03:53:33.521Z,152
2018-04-15T03:54:43.519Z,168
2018-04-15T03:55:53.525Z,184
2018-04-15T03:57:03.263Z,200
2018-04-15T03:58:12.726Z,220
2018-04-15T03:59:22.731Z,240
2018-04-15T04:00:32.774Z,260
2018-04-15T04:01:41.977Z,280
2018-04-15T04:02:51.718Z,300
2018-04-15T04:04:01.456Z,324
2018-04-15T04:05:10.921Z,348
2018-04-15T04:06:20.659Z,372
2018-04-15T04:07:30.659Z,396
2018-04-15T04:08:40.403Z,424
2018-04-15T04:09:49.873Z,452
2018-04-15T04:10:59.873Z,480
2018-04-15T04:12:09.357Z,508
2018-04-15T04:13:19.090Z,536
2018-04-15T04:14:28.553Z,564
2018-04-15T04:15:38.293Z,596
2018-04-15T04:16:48.289Z,628
2018-04-15T04:17:58.294Z,664
2018-04-15T04:19:08.036Z,692
2018-04-15T04:20:17.774Z,728
2018-04-15T04:21:27.810Z,760
2018-04-15T04:22:37.549Z,796
2018-04-15T04:23:47.549Z,828
2018-04-15T04:24:57.288Z,864
2018-04-15T04:26:07.026Z,904
2018-04-15T04:27:16.781Z,940
2018-04-15T04:28:26.262Z,980
2018-04-15T04:29:35.996Z,1016
2018-04-15T04:30:45.987Z,1056
2018-04-15T04:31:55.744Z,1092
2018-04-15T04:33:04.951Z,1136
2018-04-15T04:34:14.947Z,1176
2018-04-15T04:35:24.941Z,1212
2018-04-15T04:36:34.512Z,1256
2018-04-15T04:37:44.244Z,1296
2018-04-15T04:38:53.978Z,1336
2018-04-15T04:40:03.984Z,1380
2018-04-15T04:41:13.732Z,1420
2018-04-15T04:42:23.732Z,1464
2018-04-15T04:43:33.724Z,1508
2018-04-15T04:44:43.735Z,1548
2018-04-15T04:45:53.485Z,1592
2018-04-15T04:47:03.487Z,1636
2018-04-15T04:48:12.956Z,1680
2018-04-15T04:49:22.981Z,1728
2018-04-15T04:50:32.994Z,1772
2018-04-15T04:51:42.993Z,1816
2018-04-15T04:52:52.725Z,1860
2018-04-15T04:54:02.785Z,1908
2018-04-15T04:55:12.258Z,1948
2018-04-15T04:56:22.258Z,1996
2018-04-15T04:57:32.273Z,2040
2018-04-15T04:58:41.737Z,2088
2018-04-15T04:59:51.206Z,2128
2018-04-15T05:01:00.946Z,2176
2018-04-15T05:02:10.683Z,2216
2018-04-15T05:03:20.679Z,2260
2018-04-15T05:04:30.144Z,2304
2018-04-15T05:05:40.142Z,2348
2018-04-15T05:06:50.140Z,2388
2018-04-15T05:07:59.873Z,2432
2018-04-15T05:09:09.071Z,2472
2018-04-15T05:10:19.073Z,2516
2018-04-15T05:11:28.818Z,2556
2018-04-15T05:12:38.286Z,2600
2018-04-15T05:13:48.027Z,2640
2018-04-15T05:14:57.496Z,2684
2018-04-15T05:16:07.498Z,2724
2018-04-15T05:17:17.179Z,2764
2018-04-15T05:18:26.918Z,2800
2018-04-15T05:19:36.651Z,2840
2018-04-15T05:20:46.658Z,2876
2018-04-15T05:21:56.661Z,2916
2018-04-15T05:23:06.679Z,2956
2018-04-15T05:24:16.411Z,2996
2018-04-15T05:25:26.459Z,3032
2018-04-15T05:26:36.196Z,3076
2018-04-15T05:27:45.948Z,3116
2018-04-15T05:28:55.942Z,3152
2018-04-15T05:30:05.944Z,3196
2018-04-15T05:31:15.146Z,3232
2018-04-15T05:32:24.983Z,3272
2018-04-15T05:33:34.983Z,3308
2018-04-15T05:34:44.761Z,3352
2018-04-15T05:35:54.780Z,3388
2018-04-15T05:37:03.982Z,3428
2018-04-15T05:38:13.981Z,3468
2018-04-15T05:39:23.989Z,3508
2018-04-15T05:40:33.454Z,3548
2018-04-15T05:41:43.451Z,3592
2018-04-15T05:42:53.458Z,3628
2018-04-15T05:44:02.925Z,3668
2018-04-15T05:45:12.660Z,3712
2018-04-15T05:46:22.667Z,3748
2018-04-15T05:47:32.680Z,3784
2018-04-15T05:48:41.885Z,3824
2018-04-15T05:49:51.624Z,3860
2018-04-15T05:51:01.622Z,3892
2018-04-15T05:52:11.351Z,3924
2018-04-15T05:53:21.083Z,3960
2018-04-15T05:54:31.082Z,3988
2018-04-15T05:55:41.084Z,4024
2018-04-15T05:56:50.824Z,4056
2018-04-15T05:58:00.559Z,4088
2018-04-15T05:59:10.028Z,4120
2018-04-15T06:00:19.775Z,4152
2018-04-15T06:01:29.784Z,4184
2018-04-15T06:02:39.254Z,4216
2018-04-15T06:03:49.255Z,4244
2018-04-15T06:04:58.993Z,4280
2018-04-15T06:06:08.456Z,4308
2018-04-15T06:07:17.919Z,4340
2018-04-15T06:08:27.653Z,4372
2018-04-15T06:09:37.387Z,4404
2018-04-15T06:10:47.120Z,4440
2018-04-15T06:11:56.854Z,4464
2018-04-15T06:13:06.321Z,4500
2018-04-15T06:14:16.322Z,4528
2018-04-15T06:15:25.789Z,4560
2018-04-15T06:16:35.520Z,4592
2018-04-15T06:17:45.269Z,4628
2018-04-15T06:18:54.737Z,4660
2018-04-15T06:20:04.744Z,4692
2018-04-15T06:21:14.477Z,4724
2018-04-15T06:22:24.493Z,4760
2018-04-15T06:23:34.233Z,4792
2018-04-15T06:24:44.463Z,4824
2018-04-15T06:25:54.197Z,4848
2018-04-15T06:27:04.209Z,4880
2018-04-15T06:28:13.954Z,4912
2018-04-15T06:29:23.697Z,4936
2018-04-15T06:30:33.702Z,4968
2018-04-15T06:31:43.448Z,4996
2018-04-15T06:32:53.444Z,5028
2018-04-15T06:34:02.909Z,5064
2018-04-15T06:35:12.658Z,5092
2018-04-15T06:36:22.123Z,5120
2018-04-15T06:37:31.593Z,5156
2018-04-15T06:38:41.385Z,5188
2018-04-15T06:39:51.123Z,5220
2018-04-15T06:41:00.597Z,5248
2018-04-15T06:42:10.610Z,5280
2018-04-15T06:43:20.348Z,5308
2018-04-15T06:44:30.091Z,5336
2018-04-15T06:45:40.109Z,5368
2018-04-15T06:46:50.118Z,5400
2018-04-15T06:48:00.172Z,5436
2018-04-15T06:49:10.184Z,5464
2018-04-15T06:50:20.073Z,5488
2018-04-15T06:51:29.808Z,5516
2018-04-15T06:52:39.536Z,5544
2018-04-15T06:53:49.537Z,5572
2018-04-15T06:54:59.275Z,5596
2018-04-15T06:56:09.036Z,5624
2018-04-15T06:57:19.083Z,5652
2018-04-15T06:58:28.592Z,5680
2018-04-15T06:59:38.326Z,5708
2018-04-15T07:00:48.337Z,5732
2018-04-15T07:01:58.173Z,5768
2018-04-15T07:03:07.902Z,5796
2018-04-15T07:04:17.646Z,5828
2018-04-15T07:05:27.384Z,5856
2018-04-15T07:06:37.283Z,5888
2018-04-15T07:07:47.295Z,5920
2018-04-15T07:08:56.501Z,5948
2018-04-15T07:10:06.246Z,5976
2018-04-15T07:11:16.258Z,6008
2018-04-15T07:12:26.259Z,6036
2018-04-15T07:13:36.259Z,6064
2018-04-15T07:14:45.737Z,6096
2018-04-15T07:15:55.738Z,6124
2018-04-15T07:17:05.466Z,6156
2018-04-15T07:18:15.207Z,6188
2018-04-15T07:19:25.241Z,6216
2018-04-15T07:20:34.976Z,6248
2018-04-15T07:21:45.084Z,6280
2018-04-15T07:22:55.197Z,6308
2018-04-15T07:24:05.203Z,6340
2018-04-15T07:25:14.943Z,6376
2018-04-15T07:26:24.946Z,6404
2018-04-15T07:27:34.955Z,6440
2018-04-15T07:28:44.693Z,6476
2018-04-15T07:29:54.431Z,6516
2018-04-15T07:31:03.908Z,6544
2018-04-15T07:32:13.917Z,6580
2018-04-15T07:33:23.919Z,6612
2018-04-15T07:34:33.385Z,6644
2018-04-15T07:35:43.118Z,6676
2018-04-15T07:36:52.852Z,6708
2018-04-15T07:38:02.861Z,6744
2018-04-15T07:39:12.868Z,6772
2018-04-15T07:40:22.874Z,6812
2018-04-15T07:41:32.621Z,6848
2018-04-15T07:42:42.366Z,6892
2018-04-15T07:43:52.376Z,6936
2018-04-15T07:45:02.372Z,6980
2018-04-15T07:46:12.114Z,7028
2018-04-15T07:47:21.579Z,7076
2018-04-15T07:48:31.591Z,7120
2018-04-15T07:49:41.612Z,7176
2018-04-15T07:50:51.351Z,7224
2018-04-15T07:52:01.085Z,7272
2018-04-15T07:53:11.109Z,7316
2018-04-15T07:54:21.145Z,7360
2018-04-15T07:55:30.885Z,7408
2018-04-15T07:56:40.622Z,7452
2018-04-15T07:57:50.634Z,7496
2018-04-15T07:59:00.381Z,7548
2018-04-15T08:00:10.120Z,7596
2018-04-15T08:01:19.862Z,7640
2018-04-15T08:02:29.997Z,7688
2018-04-15T08:03:40.016Z,7736
2018-04-15T08:04:49.751Z,7776
2018-04-15T08:05:59.491Z,7816
2018-04-15T08:07:08.693Z,7856
2018-04-15T08:08:18.444Z,7900
2018-04-15T08:09:28.183Z,7940
2018-04-15T08:10:38.191Z,7984
2018-04-15T08:11:47.662Z,8024
2018-04-15T08:12:57.670Z,8064
2018-04-15T08:14:07.425Z,8104
2018-04-15T08:15:17.440Z,8132
2018-04-15T08:16:27.454Z,8164
2018-04-15T08:17:37.195Z,8192
2018-04-15T08:18:47.196Z,8224
2018-04-15T08:19:56.669Z,8264
2018-04-15T08:21:06.409Z,8248
2018-04-15T08:22:16.430Z,8328
2018-04-15T08:23:26.486Z,8364
2018-04-15T08:24:36.492Z,8404
2018-04-15T08:25:46.494Z,8436
2018-04-15T08:26:56.503Z,8472
2018-04-15T08:28:05.983Z,8504
2018-04-15T08:29:15.993Z,8544
2018-04-15T08:30:25.725Z,8580
2018-04-15T08:31:35.751Z,8608
2018-04-15T08:32:45.486Z,8636
2018-04-15T08:33:55.487Z,8676
2018-04-15T08:35:05.224Z,8708
2018-04-15T08:36:14.965Z,8744
2018-04-15T08:37:24.440Z,8776
2018-04-15T08:38:33.650Z,8812
2018-04-15T08:39:43.389Z,8844
2018-04-15T08:40:53.399Z,8876
2018-04-15T08:42:03.406Z,8916
2018-04-15T08:43:12.946Z,8948
2018-04-15T08:44:22.746Z,8996
2018-04-15T08:45:32.210Z,9044
2018-04-15T08:46:41.681Z,9092
2018-04-15T08:47:51.428Z,9140
2018-04-15T08:49:00.896Z,9180
2018-04-15T08:50:10.904Z,9220
2018-04-15T08:51:20.915Z,9260
2018-04-15T08:52:30.649Z,9308
2018-04-15T08:53:40.401Z,9344
2018-04-15T08:54:50.415Z,9388
2018-04-15T08:56:00.421Z,9432
2018-04-15T08:57:09.894Z,9480
2018-04-15T08:58:19.633Z,9532
2018-04-15T08:59:28.833Z,9588
2018-04-15T09:00:38.350Z,9632
2018-04-15T09:01:48.185Z,9680
2018-04-15T09:02:58.188Z,9716
2018-04-15T09:04:07.933Z,9748
2018-04-15T09:05:17.931Z,9780
2018-04-15T09:06:27.927Z,9832
2018-04-15T09:07:37.930Z,9868
2018-04-15T09:08:47.399Z,9892
2018-04-15T09:09:56.871Z,9928
2018-04-15T09:11:06.626Z,9956
2018-04-15T09:12:16.634Z,9988
2018-04-15T09:13:26.647Z,10016
2018-04-15T09:14:36.382Z,10052
2018-04-15T09:15:45.150Z,10092
2018-04-15T09:16:54.890Z,10124
2018-04-15T09:18:04.905Z,10164
2018-04-15T09:19:14.935Z,10200
2018-04-15T09:20:24.677Z,10220
2018-04-15T09:21:34.149Z,10240
2018-04-15T09:22:43.887Z,10268
2018-04-15T09:23:53.679Z,10296
2018-04-15T09:25:03.153Z,10344
2018-04-15T09:26:12.890Z,10396
2018-04-15T09:27:22.899Z,10472
2018-04-15T09:28:32.902Z,10548
2018-04-15T09:29:43.008Z,10628
2018-04-15T09:30:53.006Z,10724
2018-04-15T09:32:02.747Z,10820
2018-04-15T09:33:12.756Z,10892
2018-04-15T09:34:22.756Z,10972
2018-04-15T09:35:32.524Z,11008
2018-04-15T09:36:42.573Z,10992
2018-04-15T09:37:52.575Z,10956
2018-04-15T09:39:02.581Z,10924
2018-04-15T09:40:12.060Z,10912
2018-04-15T09:41:21.267Z,10928
2018-04-15T09:42:31.010Z,10968
2018-04-15T09:43:40.486Z,11008
2018-04-15T09:44:50.519Z,11060
2018-04-15T09:46:00.262Z,11120
2018-04-15T09:47:09.466Z,11184
2018-04-15T09:48:19.203Z,11260
2018-04-15T09:49:28.938Z,11360
2018-04-15T09:50:38.948Z,11476
2018-04-15T09:51:48.690Z,11608
2018-04-15T09:52:58.705Z,11768
2018-04-15T09:54:08.501Z,11916
2018-04-15T09:55:17.982Z,12084
2018-04-15T09:56:27.999Z,12300
2018-04-15T09:57:38.007Z,12580
2018-04-15T09:58:47.475Z,12912
2018-04-15T09:59:57.487Z,12760
2018-04-15T10:01:06.953Z,12856
2018-04-15T10:02:16.750Z,13068
2018-04-15T10:03:26.503Z,13496
2018-04-15T10:04:36.246Z,14304
2018-04-15T10:05:46.300Z,15144
2018-04-15T10:06:56.323Z,16276
2018-04-15T10:08:06.085Z,17064
2018-04-15T10:09:16.092Z,18176
2018-04-15T10:10:25.843Z,18816
2018-04-15T10:11:35.329Z,19328
2018-04-15T10:12:45.095Z,19584
2018-04-15T10:13:55.155Z,20224
2018-04-15T10:15:04.905Z,20192
2018-04-15T10:16:14.924Z,20128
2018-04-15T10:17:24.400Z,20448
2018-04-15T10:18:34.139Z,20864
2018-04-15T10:19:43.895Z,21312
2018-04-15T10:20:53.908Z,21696
2018-04-15T10:22:03.918Z,20992
2018-04-15T10:23:13.395Z,20704
2018-04-15T10:24:23.236Z,20320
2018-04-15T10:25:33.350Z,19936
2018-04-15T10:26:43.359Z,19584
2018-04-15T10:27:53.103Z,19264
2018-04-15T10:29:02.840Z,19136
2018-04-15T10:30:12.325Z,19104
2018-04-15T10:31:22.332Z,19168
2018-04-15T10:32:32.091Z,19264
2018-04-15T10:33:41.834Z,19488
2018-04-15T10:34:51.848Z,20096
2018-04-15T10:36:01.870Z,20864
2018-04-15T10:37:11.346Z,21824
2018-04-15T10:38:20.830Z,21824
2018-04-15T10:39:30.574Z,22208
2018-04-15T10:40:40.321Z,22560
2018-04-15T10:41:50.336Z,22784
2018-04-15T10:42:59.806Z,22720
2018-04-15T10:44:09.283Z,22656
2018-04-15T10:45:19.299Z,22560
2018-04-15T10:46:29.039Z,22432
2018-04-15T10:47:38.787Z,22240
2018-04-15T10:48:48.845Z,22048
2018-04-15T10:49:58.599Z,21760
2018-04-15T10:51:08.607Z,21568
2018-04-15T10:52:18.364Z,21376
2018-04-15T10:53:27.849Z,21248
2018-04-15T10:54:37.965Z,21088
2018-04-15T10:55:47.742Z,21216
2018-04-15T10:56:57.764Z,21312
2018-04-15T10:58:07.515Z,21984
2018-04-15T10:59:16.988Z,23520
2018-04-15T11:00:26.464Z,25056
2018-04-15T11:01:36.211Z,28224
2018-04-15T11:02:46.230Z,28704
2018-04-15T11:03:56.246Z,28800
2018-04-15T11:05:05.993Z,28992
2018-04-15T11:06:15.201Z,28128
2018-04-15T11:07:24.944Z,28416
2018-04-15T11:08:34.695Z,27808
2018-04-15T11:09:43.905Z,28448
2018-04-15T11:10:53.963Z,29728
2018-04-15T11:12:03.448Z,30720
2018-04-15T11:13:13.196Z,29120
2018-04-15T11:14:23.207Z,28384
2018-04-15T11:15:32.956Z,26592
2018-04-15T11:16:41.903Z,26272
2018-04-15T11:17:51.919Z,26368
2018-04-15T11:19:01.669Z,35232
2018-04-15T11:20:10.637Z,35872
2018-04-15T11:21:20.120Z,36992
2018-04-15T11:22:30.132Z,49632
2018-04-15T11:23:39.881Z,72896
2018-04-15T11:24:49.625Z,74976
2018-04-15T11:25:59.374Z,63296
2018-04-15T11:27:08.859Z,34816
2018-04-15T11:28:18.872Z,73216
2018-04-15T11:29:28.885Z,75360
2018-04-15T11:30:38.370Z,70688
2018-04-15T11:31:48.124Z,68704
2018-04-15T11:32:57.873Z,68960
2018-04-15T11:34:07.891Z,40448
2018-04-15T11:35:17.651Z,29024
2018-04-15T11:36:27.673Z,39616
2018-04-15T11:37:37.692Z,58944
2018-04-15T11:38:47.463Z,34144
2018-04-15T11:39:56.952Z,59072
2018-04-15T11:41:06.789Z,29600
2018-04-15T11:42:16.541Z,25632
2018-04-15T11:43:26.565Z,55872
2018-04-15T11:44:36.594Z,28000
2018-04-15T11:45:46.352Z,42720
2018-04-15T11:46:55.838Z,73760
2018-04-15T11:48:05.857Z,31776
2018-04-15T11:49:15.132Z,24320
2018-04-15T11:50:24.616Z,23360
2018-04-15T11:51:34.314Z,23264
2018-04-15T11:52:44.506Z,22400
2018-04-15T11:53:54.272Z,22720
2018-04-15T11:55:04.031Z,70816
2018-04-15T11:56:13.785Z,23712
2018-04-15T11:57:23.804Z,65248
2018-04-15T11:58:33.653Z,63136
2018-04-15T11:59:43.754Z,71584
2018-04-15T12:00:53.814Z,24736
2018-04-15T12:02:03.569Z,71040
2018-04-15T12:03:13.324Z,30400
2018-04-15T12:04:23.390Z,69184
2018-04-15T12:05:33.137Z,65184
2018-04-15T12:06:43.152Z,59712
2018-04-15T12:07:53.171Z,61952
2018-04-15T12:09:03.188Z,64352
2018-04-15T12:10:12.797Z,51904
2018-04-15T12:11:22.617Z,30624
2018-04-15T12:12:32.656Z,65792
2018-04-15T12:13:42.681Z,67616
2018-04-15T12:14:52.438Z,66144
2018-04-15T12:16:02.200Z,67072
2018-04-15T12:17:12.284Z,66880
2018-04-15T12:18:22.384Z,66688
2018-04-15T12:19:32.145Z,65088
2018-04-15T12:20:41.898Z,63328
2018-04-15T12:21:51.710Z,64320
2018-04-15T12:23:01.467Z,24960
2018-04-15T12:24:11.219Z,69600
2018-04-15T12:25:20.978Z,68000
2018-04-15T12:26:30.466Z,67648
2018-04-15T12:27:40.587Z,64032
2018-04-15T12:28:50.074Z,67424
2018-04-15T12:29:59.835Z,71168
2018-04-15T12:31:09.592Z,69472
2018-04-15T12:32:19.620Z,69344
2018-04-15T12:33:29.638Z,68096
2018-04-15T12:34:39.128Z,65824
2018-04-15T12:35:48.745Z,70656
2018-04-15T12:36:58.878Z,68384
2018-04-15T12:38:08.636Z,64896
2018-04-15T12:39:18.663Z,55680
2018-04-15T12:40:28.437Z,59936
2018-04-15T12:41:38.466Z,48832
2018-04-15T12:42:48.225Z,59008
2018-04-15T12:43:57.988Z,45728
2018-04-15T12:45:07.472Z,65344
2018-04-15T12:46:17.545Z,66624
2018-04-15T12:47:27.571Z,67296
2018-04-15T12:48:37.336Z,65632
2018-04-15T12:49:47.364Z,65792
2018-04-15T12:50:57.390Z,64608
2018-04-15T12:52:06.880Z,62624
2018-04-15T12:53:16.907Z,64480
2018-04-15T12:54:26.666Z,63808
2018-04-15T12:55:36.427Z,65248
2018-04-15T12:56:46.451Z,51392
2018-04-15T12:57:56.230Z,63552
2018-04-15T12:59:06.263Z,66048
2018-04-15T13:00:16.025Z,68576
2018-04-15T13:01:26.053Z,68864
2018-04-15T13:02:35.549Z,67968
2018-04-15T13:03:45.649Z,66528
2018-04-15T13:04:55.673Z,66848
2018-04-15T13:06:05.816Z,65952
2018-04-15T13:07:15.355Z,64512
2018-04-15T13:08:25.121Z,64704
2018-04-15T13:09:35.147Z,68608
2018-04-15T13:10:45.174Z,67200
2018-04-15T13:11:55.202Z,58464
2018-04-15T13:13:04.962Z,62528
2018-04-15T13:14:14.996Z,59328
2018-04-15T13:15:25.032Z,58752
2018-04-15T13:16:34.795Z,57600
2018-04-15T13:17:44.825Z,59040
2018-04-15T13:18:54.587Z,60288
2018-04-15T13:20:04.075Z,60352
2018-04-15T13:21:14.111Z,65568
2018-04-15T13:22:23.955Z,65024
2018-04-15T13:23:33.450Z,64192
2018-04-15T13:24:43.215Z,62848
2018-04-15T13:25:53.243Z,60256
2018-04-15T13:27:03.054Z,62208
2018-04-15T13:28:12.778Z,64832
2018-04-15T13:29:22.277Z,65600
2018-04-15T13:30:31.509Z,64768
2018-04-15T13:31:41.282Z,62208
2018-04-15T13:32:51.317Z,60160
2018-04-15T13:34:01.345Z,59712
2018-04-15T13:35:11.116Z,60416
2018-04-15T13:36:20.878Z,62720
2018-04-15T13:37:30.907Z,62208
2018-04-15T13:38:40.688Z,61280
2018-04-15T13:39:50.709Z,59488
2018-04-15T13:41:00.740Z,59296
2018-04-15T13:42:10.506Z,55904
2018-04-15T13:43:20.535Z,55936
2018-04-15T13:44:30.562Z,55328
2018-04-15T13:45:40.322Z,52608
2018-04-15T13:46:49.547Z,29184
2018-04-15T13:47:59.323Z,26240
2018-04-15T13:49:08.822Z,53408
2018-04-15T13:50:18.593Z,42464
2018-04-15T13:51:28.621Z,54624
2018-04-15T13:52:38.124Z,53248
2018-04-15T13:53:47.897Z,27616
2018-04-15T13:54:57.657Z,54176
2018-04-15T13:56:07.421Z,53856
2018-04-15T13:57:17.453Z,26176
2018-04-15T13:58:27.482Z,44480
2018-04-15T13:59:37.241Z,59424
2018-04-15T14:00:46.465Z,60832
2018-04-15T14:01:56.494Z,63456
2018-04-15T14:03:05.986Z,64256
2018-04-15T14:04:15.750Z,66880
2018-04-15T14:05:25.506Z,33632
2018-04-15T14:06:35.591Z,25152
2018-04-15T14:07:45.083Z,44992
2018-04-15T14:08:55.123Z,69344
2018-04-15T14:10:04.895Z,58080
2018-04-15T14:11:14.660Z,37792
2018-04-15T14:12:24.686Z,70016
2018-04-15T14:13:34.438Z,69792
2018-04-15T14:14:44.466Z,62432
2018-04-15T14:15:54.228Z,70336
2018-04-15T14:17:03.720Z,70976
2018-04-15T14:18:13.750Z,73984
2018-04-15T14:19:23.260Z,74624
2018-04-15T14:20:33.033Z,66784
2018-04-15T14:21:42.798Z,65472
2018-04-15T14:22:52.828Z,72544
2018-04-15T14:24:02.624Z,71488
2018-04-15T14:25:12.702Z,68416
2018-04-15T14:26:22.848Z,67968
2018-04-15T14:27:32.337Z,70144
2018-04-15T14:28:42.408Z,69696
2018-04-15T14:29:52.165Z,57568
2018-04-15T14:31:01.665Z,27584
2018-04-15T14:32:11.424Z,29536
2018-04-15T14:33:21.455Z,70048
2018-04-15T14:34:30.952Z,69120
2018-04-15T14:35:40.461Z,68032
2018-04-15T14:36:50.238Z,67392
2018-04-15T14:37:59.996Z,64608
2018-04-15T14:39:09.231Z,65088
2018-04-15T14:40:18.993Z,65600
2018-04-15T14:41:28.795Z,64352
2018-04-15T14:42:38.565Z,64192
2018-04-15T14:43:48.337Z,60896
2018-04-15T14:44:57.827Z,62336
2018-04-15T14:46:07.636Z,61120
2018-04-15T14:47:17.392Z,60864
2018-04-15T14:48:27.420Z,53568
2018-04-15T14:49:37.184Z,26848
2018-04-15T14:50:46.946Z,23840
2018-04-15T14:51:57.046Z,21184
2018-04-15T14:53:06.542Z,19648
2018-04-15T14:54:16.031Z,18784
2018-04-15T14:55:26.072Z,17696
2018-04-15T14:56:35.301Z,17376
2018-04-15T14:57:44.796Z,16924
2018-04-15T14:58:54.564Z,16408
2018-04-15T15:00:04.324Z,16664
2018-04-15T15:01:14.088Z,22560
2018-04-15T15:02:23.858Z,49056
2018-04-15T15:03:33.889Z,53568
2018-04-15T15:04:43.958Z,53024
2018-04-15T15:05:53.994Z,52288
2018-04-15T15:07:03.218Z,51712
2018-04-15T15:08:12.983Z,49664
2018-04-15T15:09:22.740Z,51104
2018-04-15T15:10:32.795Z,49408
2018-04-15T15:11:42.548Z,49376
2018-04-15T15:12:52.307Z,49728
2018-04-15T15:14:01.579Z,51008
2018-04-15T15:15:11.600Z,50624
2018-04-15T15:16:21.190Z,49312
2018-04-15T15:17:31.221Z,48640
2018-04-15T15:18:41.250Z,48128
2018-04-15T15:19:51.164Z,48800
2018-04-15T15:21:00.929Z,47904
2018-04-15T15:22:10.965Z,19776
2018-04-15T15:23:21.004Z,19616
2018-04-15T15:24:30.507Z,20608
2018-04-15T15:25:40.020Z,23520
2018-04-15T15:26:49.779Z,22112
2018-04-15T15:27:59.543Z,25760
2018-04-15T15:29:08.768Z,38880
2018-04-15T15:30:18.261Z,28352
2018-04-15T15:31:28.285Z,44224
2018-04-15T15:32:38.043Z,44576
2018-04-15T15:33:47.807Z,40768
2018-04-15T15:34:57.829Z,32608
2018-04-15T15:36:07.861Z,22048
2018-04-15T15:37:17.891Z,25280
2018-04-15T15:38:27.919Z,20736
2018-04-15T15:39:37.415Z,17824
2018-04-15T15:40:47.176Z,16480
2018-04-15T15:41:56.933Z,15560